LTBJLTFE

Guest
Details From LTBJ - ADNAN MENDERES
To LTFE - MILAS BODRUM
Flight Number -
Tags generated
Created
Modified
Stats Distance 67 nm / 124 km
Max Altitude 0 ft / 0 m
Waypoints 3
Social Downloads 4
Likes 0
Share VATSIM

Download

Looking for another format? Having issues loading an existing format? Contact us
Advertisement - Login to hide

Notes

Basic altitude profile: - Ascent Rate: 2500ft/min - Ascent Speed: 250kts - Cruise Altitude: 35000ft - Cruise Speed: 420kts - Descent Rate: 1500ft/min - Descent Speed: 250kts Options: - Use NATs: yes - Use PACOTS: yes - Use low airways: yes - Use high airways: yes

Route

LTBJ BDR LTFE

ID Type Via Altitude Latitude Longitude Leg Dist Tot Dist Heading (true) Name
O LTBJ APT - 0 ft / 0 m 38.29221˚ 27.15594˚ - 0 nm - ADNAN MENDERES
BDR NDB - 0 ft / 0 m 37.25333˚ 27.66917˚ 66 nm 66 nm 159° / 159° MILAS BODRUM NDB
O LTFE APT - 0 ft / 0 m 37.25112˚ 27.66535˚ 0 nm 67 nm 234° / 234° MILAS BODRUM

Altitude Profile

Advertisement - Login to hide

LTBJ

Details ICAO LTBJ (ADB)
Name ADNAN MENDERES
Region Turkey
Timezone Europe/Istanbul (UTC+3.0)
Stats Elevation 412 ft / 126 m (AMSL)
Location 38.292210° 27.155939°
Runways 2
Magnetic Variation 4.895° E

METAR

LTBJ 121220Z 19005KT 150V240 9999 FEW030 SCT100 18/11 Q1022 NOSIG RMK RWY16 18007KT 140V210

Decode

TAF

Not found

Departure Runways

ID Width Length Bearing (true) Bearing (mag) Surface Threshold Offset Overrun Length
16L 147 ft / 45 m 10,635 ft / 3,242 m 166.78° 161.89° Asphalt 0 ft / 0 m 197 ft / 60 m
16R 147 ft / 45 m 10,651 ft / 3,246 m 166.71° 161.82° Concrete 0 ft / 0 m 197 ft / 60 m
34L 147 ft / 45 m 10,651 ft / 3,246 m 346.72° 341.83° Concrete 0 ft / 0 m 197 ft / 60 m
34R 147 ft / 45 m 10,635 ft / 3,242 m 346.79° 341.90° Asphalt 0 ft / 0 m 197 ft / 60 m

LTFE

Details ICAO LTFE (BJV)
Name MILAS BODRUM
Region Turkey
Timezone Europe/Istanbul (UTC+3.0)
Stats Elevation 21 ft / 6 m (AMSL)
Location 37.251115° 27.665350°
Runways 1
Magnetic Variation 4.831° E

METAR

LTFE 121220Z 28008KT 9999 FEW035 BKN100 19/11 Q1023 NOSIG RMK RWY10 26008KT

Decode

TAF

Not found

Destination Runways

ID Width Length Bearing (true) Bearing (mag) Surface Threshold Offset Overrun Length
11 148 ft / 45 m 9,786 ft / 2,983 m 106.68° 101.85° Concrete 0 ft / 0 m 208 ft / 63 m
29 148 ft / 45 m 9,786 ft / 2,983 m 286.70° 281.87° Concrete 0 ft / 0 m 201 ft / 61 m

Approach Navaids

Runway Type Ident Frequency Range Bearing (true) Bearing (mag) Slope Elevation
11 Localiser IBDR 109.30 MHz 18 nm / 33 km 106.64° 101.81° - 21 ft / 6 m (AMSL)
11 Glidescope IBDR 109.30 MHz 10 nm / 19 km 106.69° 101.86° 3.30° 21 ft / 6 m (AMSL)
29 Localiser IGML 109.10 MHz 18 nm / 33 km 286.68° 281.85° - 21 ft / 6 m (AMSL)
29 Glidescope IGML 109.10 MHz 10 nm / 19 km 286.69° 281.86° 3.90° 21 ft / 6 m (AMSL)

Popular Alternatives